sensor_id;sensor_type;location;lat;lon;timestamp;pressure;altitude;pressure_sealevel;temperature;humidity
76827;BME280;65788;52.284;20.890;2023-01-29T00:00:43;101304.48;;;19.85;31.59
76827;BME280;65788;52.284;20.890;2023-01-29T00:03:30;101299.22;;;19.79;31.66
76827;BME280;65788;52.284;20.890;2023-01-29T00:05:57;101294.64;;;19.72;31.72
76827;BME280;65788;52.284;20.890;2023-01-29T00:08:25;101288.02;;;19.67;31.76
76827;BME280;65788;52.284;20.890;2023-01-29T00:10:53;101286.54;;;19.62;31.83
76827;BME280;65788;52.284;20.890;2023-01-29T00:13:26;101275.05;;;19.58;31.85
76827;BME280;65788;52.284;20.890;2023-01-29T00:15:54;101274.17;;;19.53;31.85
76827;BME280;65788;52.284;20.890;2023-01-29T00:18:21;101274.80;;;19.50;31.81
76827;BME280;65788;52.284;20.890;2023-01-29T00:20:49;101274.31;;;19.45;31.82
76827;BME280;65788;52.284;20.890;2023-01-29T00:23:16;101275.02;;;19.40;31.81
76827;BME280;65788;52.284;20.890;2023-01-29T00:25:43;101273.05;;;19.35;31.82
76827;BME280;65788;52.284;20.890;2023-01-29T00:28:11;101269.96;;;19.29;31.84
76827;BME280;65788;52.284;20.890;2023-01-29T00:30:38;101259.77;;;19.25;31.85
76827;BME280;65788;52.284;20.890;2023-01-29T00:33:06;101267.51;;;19.21;31.84
76827;BME280;65788;52.284;20.890;2023-01-29T00:35:33;101268.41;;;19.15;31.89
76827;BME280;65788;52.284;20.890;2023-01-29T00:38:00;101264.06;;;19.13;31.85
76827;BME280;65788;52.284;20.890;2023-01-29T00:40:28;101252.98;;;19.09;31.86
76827;BME280;65788;52.284;20.890;2023-01-29T00:43:14;101254.47;;;19.03;31.85
76827;BME280;65788;52.284;20.890;2023-01-29T00:46:01;101254.64;;;19.00;31.83
76827;BME280;65788;52.284;20.890;2023-01-29T00:48:28;101246.08;;;18.96;31.81
76827;BME280;65788;52.284;20.890;2023-01-29T00:50:55;101242.73;;;18.90;31.83
76827;BME280;65788;52.284;20.890;2023-01-29T00:53:22;101241.60;;;18.88;31.79
76827;BME280;65788;52.284;20.890;2023-01-29T00:55:49;101241.77;;;18.86;31.77
76827;BME280;65788;52.284;20.890;2023-01-29T00:58:16;101236.27;;;18.82;31.77
76827;BME280;65788;52.284;20.890;2023-01-29T01:00:48;101237.57;;;18.79;31.78
76827;BME280;65788;52.284;20.890;2023-01-29T01:03:15;101236.54;;;18.75;31.75
76827;BME280;65788;52.284;20.890;2023-01-29T01:05:43;101232.45;;;18.71;31.72
76827;BME280;65788;52.284;20.890;2023-01-29T01:08:10;101218.33;;;18.69;31.68
76827;BME280;65788;52.284;20.890;2023-01-29T01:11:00;101205.16;;;18.66;31.63
76827;BME280;65788;52.284;20.890;2023-01-29T01:13:28;101202.88;;;18.64;31.57
76827;BME280;65788;52.284;20.890;2023-01-29T01:15:55;101198.41;;;18.61;31.58
76827;BME280;65788;52.284;20.890;2023-01-29T01:18:22;101197.24;;;18.60;31.51
76827;BME280;65788;52.284;20.890;2023-01-29T01:20:49;101195.59;;;18.57;31.53
76827;BME280;65788;52.284;20.890;2023-01-29T01:23:18;101192.60;;;18.57;31.45
76827;BME280;65788;52.284;20.890;2023-01-29T01:25:45;101192.97;;;18.54;31.37
76827;BME280;65788;52.284;20.890;2023-01-29T01:28:12;101186.59;;;18.53;31.46
76827;BME280;65788;52.284;20.890;2023-01-29T01:30:39;101188.06;;;18.51;31.47
76827;BME280;65788;52.284;20.890;2023-01-29T01:33:06;101188.95;;;18.46;31.51
76827;BME280;65788;52.284;20.890;2023-01-29T01:35:33;101190.44;;;18.46;31.47
76827;BME280;65788;52.284;20.890;2023-01-29T01:38:01;101195.42;;;18.43;31.44
76827;BME280;65788;52.284;20.890;2023-01-29T01:40:28;101193.34;;;18.40;31.46
76827;BME280;65788;52.284;20.890;2023-01-29T01:42:57;101186.52;;;18.37;31.46
76827;BME280;65788;52.284;20.890;2023-01-29T01:45:28;101184.61;;;18.33;31.51
76827;BME280;65788;52.284;20.890;2023-01-29T01:47:58;101191.94;;;18.33;31.46
76827;BME280;65788;52.284;20.890;2023-01-29T01:53:14;101198.36;;;18.31;31.50
76827;BME280;65788;52.284;20.890;2023-01-29T01:55:47;101200.75;;;18.30;31.53
76827;BME280;65788;52.284;20.890;2023-01-29T01:58:23;101199.67;;;18.31;31.49
76827;BME280;65788;52.284;20.890;2023-01-29T02:00:52;101198.96;;;18.29;31.53
76827;BME280;65788;52.284;20.890;2023-01-29T02:03:23;101201.10;;;18.30;31.52
76827;BME280;65788;52.284;20.890;2023-01-29T02:06:12;101200.61;;;18.24;31.57
76827;BME280;65788;52.284;20.890;2023-01-29T02:09:00;101202.27;;;18.23;31.62
76827;BME280;65788;52.284;20.890;2023-01-29T02:11:47;101201.23;;;18.23;31.59
76827;BME280;65788;52.284;20.890;2023-01-29T02:14:16;101197.38;;;18.24;31.54
76827;BME280;65788;52.284;20.890;2023-01-29T02:16:43;101199.37;;;18.23;31.56
76827;BME280;65788;52.284;20.890;2023-01-29T02:19:22;101201.09;;;18.20;31.68
76827;BME280;65788;52.284;20.890;2023-01-29T02:27:32;101189.82;;;18.16;31.69
76827;BME280;65788;52.284;20.890;2023-01-29T02:30:08;101188.38;;;18.13;31.77
76827;BME280;65788;52.284;20.890;2023-01-29T02:32:55;101178.39;;;18.11;31.73
76827;BME280;65788;52.284;20.890;2023-01-29T02:35:29;101173.79;;;18.11;31.80
76827;BME280;65788;52.284;20.890;2023-01-29T02:38:16;101172.67;;;18.07;31.84
76827;BME280;65788;52.284;20.890;2023-01-29T02:40:49;101169.19;;;18.08;31.86
76827;BME280;65788;52.284;20.890;2023-01-29T02:45:56;101165.38;;;18.06;31.82
76827;BME280;65788;52.284;20.890;2023-01-29T02:48:24;101170.43;;;18.05;31.81
76827;BME280;65788;52.284;20.890;2023-01-29T02:51:00;101164.45;;;18.04;31.82
76827;BME280;65788;52.284;20.890;2023-01-29T02:53:35;101163.04;;;18.02;31.77
76827;BME280;65788;52.284;20.890;2023-01-29T02:56:18;101169.89;;;18.02;31.79
76827;BME280;65788;52.284;20.890;2023-01-29T02:58:58;101164.48;;;18.01;31.77
76827;BME280;65788;52.284;20.890;2023-01-29T03:01:30;101154.71;;;17.98;31.79
76827;BME280;65788;52.284;20.890;2023-01-29T03:04:05;101152.45;;;17.94;31.83
76827;BME280;65788;52.284;20.890;2023-01-29T03:06:37;101153.20;;;17.95;31.82
76827;BME280;65788;52.284;20.890;2023-01-29T03:11:44;101149.59;;;17.93;31.79
76827;BME280;65788;52.284;20.890;2023-01-29T03:14:13;101152.90;;;17.93;31.77
76827;BME280;65788;52.284;20.890;2023-01-29T03:16:49;101149.45;;;17.91;31.74
76827;BME280;65788;52.284;20.890;2023-01-29T03:19:38;101151.48;;;17.87;31.78
76827;BME280;65788;52.284;20.890;2023-01-29T03:22:04;101148.84;;;17.86;31.78
76827;BME280;65788;52.284;20.890;2023-01-29T03:24:36;101147.00;;;17.87;31.73
76827;BME280;65788;52.284;20.890;2023-01-29T03:27:32;101146.03;;;17.83;31.74
76827;BME280;65788;52.284;20.890;2023-01-29T03:30:18;101148.36;;;17.84;31.68
76827;BME280;65788;52.284;20.890;2023-01-29T03:33:05;101148.48;;;17.78;31.76
76827;BME280;65788;52.284;20.890;2023-01-29T03:35:35;101146.16;;;17.76;31.78
76827;BME280;65788;52.284;20.890;2023-01-29T03:38:06;101141.20;;;17.76;31.74
76827;BME280;65788;52.284;20.890;2023-01-29T03:40:43;101145.45;;;17.78;31.69
76827;BME280;65788;52.284;20.890;2023-01-29T03:43:13;101146.53;;;17.76;31.68
76827;BME280;65788;52.284;20.890;2023-01-29T03:45:55;101145.88;;;17.71;31.76
76827;BME280;65788;52.284;20.890;2023-01-29T03:48:29;101145.48;;;17.71;31.72
76827;BME280;65788;52.284;20.890;2023-01-29T03:53:42;101139.01;;;17.70;31.66
76827;BME280;65788;52.284;20.890;2023-01-29T03:56:26;101138.73;;;17.65;31.73
76827;BME280;65788;52.284;20.890;2023-01-29T03:59:03;101138.52;;;17.68;31.68
76827;BME280;65788;52.284;20.890;2023-01-29T04:01:41;101133.14;;;17.64;31.70
76827;BME280;65788;52.284;20.890;2023-01-29T04:04:12;101129.11;;;17.62;31.71
76827;BME280;65788;52.284;20.890;2023-01-29T04:06:40;101126.48;;;17.59;31.75
76827;BME280;65788;52.284;20.890;2023-01-29T04:09:17;101124.10;;;17.56;31.75
76827;BME280;65788;52.284;20.890;2023-01-29T04:11:55;101120.64;;;17.59;31.72
76827;BME280;65788;52.284;20.890;2023-01-29T04:14:23;101118.42;;;17.59;31.71
76827;BME280;65788;52.284;20.890;2023-01-29T04:16:52;101116.02;;;17.57;31.73
76827;BME280;65788;52.284;20.890;2023-01-29T04:19:21;101119.99;;;17.55;31.76
76827;BME280;65788;52.284;20.890;2023-01-29T04:21:49;101119.33;;;17.56;31.66
76827;BME280;65788;52.284;20.890;2023-01-29T04:24:18;101116.23;;;17.54;31.76
76827;BME280;65788;52.284;20.890;2023-01-29T04:43:02;101104.75;;;17.52;31.70
76827;BME280;65788;52.284;20.890;2023-01-29T04:45:26;101106.49;;;17.48;31.74
76827;BME280;65788;52.284;20.890;2023-01-29T04:47:59;101104.03;;;17.49;31.71
76827;BME280;65788;52.284;20.890;2023-01-29T04:50:34;101100.05;;;17.47;31.71
76827;BME280;65788;52.284;20.890;2023-01-29T04:55:41;101094.05;;;17.43;31.75
76827;BME280;65788;52.284;20.890;2023-01-29T04:58:15;101087.97;;;17.41;31.68
76827;BME280;65788;52.284;20.890;2023-01-29T05:00:43;101085.52;;;17.42;31.76
76827;BME280;65788;52.284;20.890;2023-01-29T05:03:13;101086.13;;;17.40;31.77
76827;BME280;65788;52.284;20.890;2023-01-29T05:05:45;101087.46;;;17.38;31.92
76827;BME280;65788;52.284;20.890;2023-01-29T05:08:15;101085.42;;;17.38;32.26
76827;BME280;65788;52.284;20.890;2023-01-29T05:10:43;101090.91;;;17.38;32.44
76827;BME280;65788;52.284;20.890;2023-01-29T05:13:12;101092.27;;;17.39;32.52
76827;BME280;65788;52.284;20.890;2023-01-29T05:15:48;101090.80;;;17.39;32.57
76827;BME280;65788;52.284;20.890;2023-01-29T05:18:16;101093.17;;;17.39;32.65
76827;BME280;65788;52.284;20.890;2023-01-29T05:20:43;101090.09;;;17.41;32.68
76827;BME280;65788;52.284;20.890;2023-01-29T05:23:15;101089.77;;;17.45;32.67
76827;BME280;65788;52.284;20.890;2023-01-29T05:25:42;101087.31;;;17.53;32.59
76827;BME280;65788;52.284;20.890;2023-01-29T05:28:10;101084.33;;;17.53;32.52
76827;BME280;65788;52.284;20.890;2023-01-29T05:30:43;101077.95;;;17.53;32.60
76827;BME280;65788;52.284;20.890;2023-01-29T05:33:15;101079.55;;;17.58;32.52
76827;BME280;65788;52.284;20.890;2023-01-29T05:35:42;101071.49;;;17.65;32.44
76827;BME280;65788;52.284;20.890;2023-01-29T05:38:10;101066.77;;;17.72;32.28
76827;BME280;65788;52.284;20.890;2023-01-29T05:40:37;101060.42;;;17.80;32.16
76827;BME280;65788;52.284;20.890;2023-01-29T05:43:04;101060.48;;;17.87;32.07
76827;BME280;65788;52.284;20.890;2023-01-29T05:45:31;101055.69;;;17.91;31.98
76827;BME280;65788;52.284;20.890;2023-01-29T05:47:59;101057.34;;;18.00;31.96
76827;BME280;65788;52.284;20.890;2023-01-29T05:50:26;101056.61;;;18.05;31.92
76827;BME280;65788;52.284;20.890;2023-01-29T05:52:57;101052.19;;;18.13;31.84
76827;BME280;65788;52.284;20.890;2023-01-29T05:55:25;101049.57;;;18.20;31.71
76827;BME280;65788;52.284;20.890;2023-01-29T05:57:52;101049.92;;;18.26;31.55
76827;BME280;65788;52.284;20.890;2023-01-29T06:00:19;101047.16;;;18.32;31.60
76827;BME280;65788;52.284;20.890;2023-01-29T06:02:46;101049.13;;;18.34;31.70
76827;BME280;65788;52.284;20.890;2023-01-29T06:05:13;101055.31;;;18.39;31.49
76827;BME280;65788;52.284;20.890;2023-01-29T06:07:40;101061.64;;;18.41;31.44
76827;BME280;65788;52.284;20.890;2023-01-29T06:10:14;101058.58;;;18.47;31.35
76827;BME280;65788;52.284;20.890;2023-01-29T06:12:42;101059.95;;;18.53;31.26
76827;BME280;65788;52.284;20.890;2023-01-29T06:15:10;101064.14;;;18.59;31.21
76827;BME280;65788;52.284;20.890;2023-01-29T06:17:37;101064.67;;;18.64;31.18
76827;BME280;65788;52.284;20.890;2023-01-29T06:20:04;101062.09;;;18.65;31.13
76827;BME280;65788;52.284;20.890;2023-01-29T06:22:32;101061.77;;;18.67;31.14
76827;BME280;65788;52.284;20.890;2023-01-29T06:24:59;101065.01;;;18.72;31.08
76827;BME280;65788;52.284;20.890;2023-01-29T06:27:25;101067.15;;;18.73;31.08
76827;BME280;65788;52.284;20.890;2023-01-29T06:29:52;101063.89;;;18.77;31.04
76827;BME280;65788;52.284;20.890;2023-01-29T06:32:19;101056.48;;;18.80;30.96
76827;BME280;65788;52.284;20.890;2023-01-29T06:34:46;101053.09;;;18.83;30.90
76827;BME280;65788;52.284;20.890;2023-01-29T06:37:13;101053.66;;;18.84;30.62
76827;BME280;65788;52.284;20.890;2023-01-29T06:39:40;101054.31;;;18.86;30.79
76827;BME280;65788;52.284;20.890;2023-01-29T06:42:07;101053.95;;;18.89;30.75
76827;BME280;65788;52.284;20.890;2023-01-29T06:44:34;101058.73;;;18.92;30.67
76827;BME280;65788;52.284;20.890;2023-01-29T06:47:01;101059.33;;;18.93;30.64
76827;BME280;65788;52.284;20.890;2023-01-29T06:49:28;101056.40;;;18.94;30.60
76827;BME280;65788;52.284;20.890;2023-01-29T06:51:55;101056.63;;;18.97;30.53
76827;BME280;65788;52.284;20.890;2023-01-29T06:54:22;101059.50;;;18.99;30.46
76827;BME280;65788;52.284;20.890;2023-01-29T06:56:49;101055.11;;;19.00;30.43
76827;BME280;65788;52.284;20.890;2023-01-29T06:59:15;101062.39;;;19.02;30.40
76827;BME280;65788;52.284;20.890;2023-01-29T07:01:42;101062.34;;;19.04;30.38
76827;BME280;65788;52.284;20.890;2023-01-29T07:04:10;101060.98;;;19.06;30.31
76827;BME280;65788;52.284;20.890;2023-01-29T07:06:37;101058.58;;;19.09;30.24
76827;BME280;65788;52.284;20.890;2023-01-29T07:09:04;101049.71;;;19.10;30.21
76827;BME280;65788;52.284;20.890;2023-01-29T07:11:32;101039.48;;;19.12;30.14
76827;BME280;65788;52.284;20.890;2023-01-29T07:13:59;101032.52;;;19.14;30.07
76827;BME280;65788;52.284;20.890;2023-01-29T07:16:26;101031.77;;;19.15;30.04
76827;BME280;65788;52.284;20.890;2023-01-29T07:18:54;101038.38;;;19.16;29.98
76827;BME280;65788;52.284;20.890;2023-01-29T07:21:21;101038.39;;;19.18;29.97
76827;BME280;65788;52.284;20.890;2023-01-29T07:23:48;101036.18;;;19.19;29.95
76827;BME280;65788;52.284;20.890;2023-01-29T07:26:15;101039.95;;;19.22;29.92
76827;BME280;65788;52.284;20.890;2023-01-29T07:28:42;101042.68;;;19.24;29.82
76827;BME280;65788;52.284;20.890;2023-01-29T07:31:11;101046.36;;;19.24;29.76
76827;BME280;65788;52.284;20.890;2023-01-29T07:33:38;101058.23;;;19.25;29.71
76827;BME280;65788;52.284;20.890;2023-01-29T07:36:08;101063.73;;;19.26;29.65
76827;BME280;65788;52.284;20.890;2023-01-29T07:38:35;101062.13;;;19.27;29.58
76827;BME280;65788;52.284;20.890;2023-01-29T07:41:02;101057.86;;;19.28;29.48
76827;BME280;65788;52.284;20.890;2023-01-29T07:43:29;101060.17;;;19.29;29.42
76827;BME280;65788;52.284;20.890;2023-01-29T07:45:59;101056.16;;;19.30;29.34
76827;BME280;65788;52.284;20.890;2023-01-29T07:48:27;101062.24;;;19.31;29.31
76827;BME280;65788;52.284;20.890;2023-01-29T07:50:54;101058.65;;;19.32;29.28
76827;BME280;65788;52.284;20.890;2023-01-29T07:53:21;101051.53;;;19.34;29.20
76827;BME280;65788;52.284;20.890;2023-01-29T07:55:48;101043.09;;;19.36;29.17
76827;BME280;65788;52.284;20.890;2023-01-29T07:58:15;101040.56;;;19.37;29.12
76827;BME280;65788;52.284;20.890;2023-01-29T08:00:43;101038.95;;;19.38;29.06
76827;BME280;65788;52.284;20.890;2023-01-29T08:03:11;101039.52;;;19.39;29.03
76827;BME280;65788;52.284;20.890;2023-01-29T08:05:38;101040.28;;;19.39;29.00
76827;BME280;65788;52.284;20.890;2023-01-29T08:08:05;101039.94;;;19.42;28.95
76827;BME280;65788;52.284;20.890;2023-01-29T08:10:33;101034.71;;;19.44;28.87
76827;BME280;65788;52.284;20.890;2023-01-29T08:13:00;101029.92;;;19.45;28.82
76827;BME280;65788;52.284;20.890;2023-01-29T08:15:27;101022.16;;;19.44;28.82
76827;BME280;65788;52.284;20.890;2023-01-29T08:17:54;101016.05;;;19.44;28.72
76827;BME280;65788;52.284;20.890;2023-01-29T08:20:21;101015.71;;;19.43;28.78
76827;BME280;65788;52.284;20.890;2023-01-29T08:22:48;101014.81;;;19.44;28.74
76827;BME280;65788;52.284;20.890;2023-01-29T08:25:15;101016.83;;;19.49;28.65
76827;BME280;65788;52.284;20.890;2023-01-29T08:27:42;101016.41;;;19.52;28.61
76827;BME280;65788;52.284;20.890;2023-01-29T08:30:09;101016.38;;;19.51;28.59
76827;BME280;65788;52.284;20.890;2023-01-29T08:32:37;101017.14;;;19.52;28.52
76827;BME280;65788;52.284;20.890;2023-01-29T08:35:04;101018.36;;;19.55;28.45
76827;BME280;65788;52.284;20.890;2023-01-29T08:37:31;101017.76;;;19.58;28.38
76827;BME280;65788;52.284;20.890;2023-01-29T08:39:58;101018.10;;;19.58;28.36
76827;BME280;65788;52.284;20.890;2023-01-29T08:42:25;101022.06;;;19.55;28.36
76827;BME280;65788;52.284;20.890;2023-01-29T08:44:52;101017.80;;;19.56;28.35
76827;BME280;65788;52.284;20.890;2023-01-29T08:47:19;101015.80;;;19.55;28.38
76827;BME280;65788;52.284;20.890;2023-01-29T08:49:46;101014.96;;;19.54;28.40
76827;BME280;65788;52.284;20.890;2023-01-29T08:52:13;101011.41;;;19.52;28.44
76827;BME280;65788;52.284;20.890;2023-01-29T08:54:40;101010.69;;;19.52;28.45
76827;BME280;65788;52.284;20.890;2023-01-29T08:57:07;101007.84;;;19.53;28.47
76827;BME280;65788;52.284;20.890;2023-01-29T08:59:34;101009.80;;;19.54;28.48
76827;BME280;65788;52.284;20.890;2023-01-29T09:02:01;101008.95;;;19.53;28.45
76827;BME280;65788;52.284;20.890;2023-01-29T09:04:28;101015.17;;;19.53;28.42
76827;BME280;65788;52.284;20.890;2023-01-29T09:06:55;101015.65;;;19.53;28.35
76827;BME280;65788;52.284;20.890;2023-01-29T09:09:22;101016.48;;;19.57;28.33
76827;BME280;65788;52.284;20.890;2023-01-29T09:11:49;101014.33;;;19.51;28.70
76827;BME280;65788;52.284;20.890;2023-01-29T09:14:16;101003.12;;;19.47;28.95
76827;BME280;65788;52.284;20.890;2023-01-29T09:16:42;100997.39;;;19.43;29.11
76827;BME280;65788;52.284;20.890;2023-01-29T09:19:09;100997.30;;;19.45;29.18
76827;BME280;65788;52.284;20.890;2023-01-29T09:21:37;101003.27;;;19.45;29.21
76827;BME280;65788;52.284;20.890;2023-01-29T09:24:04;100992.13;;;19.41;29.31
76827;BME280;65788;52.284;20.890;2023-01-29T09:26:31;100986.77;;;19.46;29.23
76827;BME280;65788;52.284;20.890;2023-01-29T09:28:58;100986.84;;;19.57;29.18
76827;BME280;65788;52.284;20.890;2023-01-29T09:31:24;100987.62;;;19.63;29.07
76827;BME280;65788;52.284;20.890;2023-01-29T09:33:51;100985.80;;;19.67;28.98
76827;BME280;65788;52.284;20.890;2023-01-29T09:36:19;100985.53;;;19.66;28.96
76827;BME280;65788;52.284;20.890;2023-01-29T09:38:45;100980.67;;;19.68;28.95
76827;BME280;65788;52.284;20.890;2023-01-29T09:41:23;100975.03;;;19.71;28.92
76827;BME280;65788;52.284;20.890;2023-01-29T09:43:59;100967.91;;;19.73;28.91
76827;BME280;65788;52.284;20.890;2023-01-29T09:46:46;100967.87;;;19.75;28.87
76827;BME280;65788;52.284;20.890;2023-01-29T09:51:46;100967.17;;;19.82;28.84
76827;BME280;65788;52.284;20.890;2023-01-29T09:54:22;100961.89;;;19.78;28.85
76827;BME280;65788;52.284;20.890;2023-01-29T09:56:53;100963.50;;;19.74;28.88
76827;BME280;65788;52.284;20.890;2023-01-29T09:59:22;100963.25;;;19.73;28.88
76827;BME280;65788;52.284;20.890;2023-01-29T10:01:53;100964.58;;;19.72;28.92
76827;BME280;65788;52.284;20.890;2023-01-29T10:04:27;100962.45;;;19.66;29.01
76827;BME280;65788;52.284;20.890;2023-01-29T10:12:29;100954.90;;;19.63;29.46
76827;BME280;65788;52.284;20.890;2023-01-29T10:25:18;100938.56;;;19.77;30.56
76827;BME280;65788;52.284;20.890;2023-01-29T10:27:49;100933.17;;;19.79;30.34
76827;BME280;65788;52.284;20.890;2023-01-29T10:32:47;100929.63;;;19.82;30.17
76827;BME280;65788;52.284;20.890;2023-01-29T10:35:27;100927.56;;;19.81;30.18
76827;BME280;65788;52.284;20.890;2023-01-29T10:37:55;100927.94;;;19.80;30.14
76827;BME280;65788;52.284;20.890;2023-01-29T10:40:28;100934.15;;;19.81;30.11
76827;BME280;65788;52.284;20.890;2023-01-29T10:43:10;100930.52;;;19.82;30.28
76827;BME280;65788;52.284;20.890;2023-01-29T10:45:44;100927.25;;;19.80;30.09
76827;BME280;65788;52.284;20.890;2023-01-29T10:48:37;100929.88;;;19.81;30.06
76827;BME280;65788;52.284;20.890;2023-01-29T10:54:26;100920.70;;;19.80;29.98
76827;BME280;65788;52.284;20.890;2023-01-29T11:01:55;100914.02;;;19.82;29.77
76827;BME280;65788;52.284;20.890;2023-01-29T11:04:23;100914.64;;;19.80;29.80
76827;BME280;65788;52.284;20.890;2023-01-29T11:06:51;100909.97;;;19.82;29.74
76827;BME280;65788;52.284;20.890;2023-01-29T11:09:31;100906.55;;;19.84;29.64
76827;BME280;65788;52.284;20.890;2023-01-29T11:14:48;100901.50;;;19.84;29.53
76827;BME280;65788;52.284;20.890;2023-01-29T11:17:21;100894.54;;;19.84;29.50
76827;BME280;65788;52.284;20.890;2023-01-29T11:19:49;100885.78;;;19.83;29.45
76827;BME280;65788;52.284;20.890;2023-01-29T11:22:21;100883.39;;;19.81;29.42
76827;BME280;65788;52.284;20.890;2023-01-29T11:25:09;100882.83;;;19.81;29.39
76827;BME280;65788;52.284;20.890;2023-01-29T11:27:44;100874.63;;;19.82;29.38
76827;BME280;65788;52.284;20.890;2023-01-29T11:33:11;100850.48;;;19.82;29.31
76827;BME280;65788;52.284;20.890;2023-01-29T11:35:38;100843.05;;;19.84;29.29
76827;BME280;65788;52.284;20.890;2023-01-29T11:38:16;100845.14;;;19.82;29.34
76827;BME280;65788;52.284;20.890;2023-01-29T11:40:44;100836.04;;;19.81;29.37
76827;BME280;65788;52.284;20.890;2023-01-29T11:45:45;100832.66;;;19.80;29.31
76827;BME280;65788;52.284;20.890;2023-01-29T11:48:14;100830.44;;;19.80;29.27
76827;BME280;65788;52.284;20.890;2023-01-29T11:50:42;100830.38;;;19.79;29.27
76827;BME280;65788;52.284;20.890;2023-01-29T11:53:23;100826.16;;;19.79;29.24
76827;BME280;65788;52.284;20.890;2023-01-29T11:55:53;100817.48;;;19.78;29.28
76827;BME280;65788;52.284;20.890;2023-01-29T11:58:31;100819.40;;;19.79;29.29
76827;BME280;65788;52.284;20.890;2023-01-29T12:01:02;100815.42;;;19.82;29.31
76827;BME280;65788;52.284;20.890;2023-01-29T12:03:32;100807.23;;;19.78;29.42
76827;BME280;65788;52.284;20.890;2023-01-29T12:08:54;100800.77;;;19.75;29.51
76827;BME280;65788;52.284;20.890;2023-01-29T12:11:29;100797.88;;;19.76;29.51
76827;BME280;65788;52.284;20.890;2023-01-29T12:13:58;100788.38;;;19.76;29.49
76827;BME280;65788;52.284;20.890;2023-01-29T12:21:46;100777.54;;;19.75;29.30
76827;BME280;65788;52.284;20.890;2023-01-29T12:24:23;100781.46;;;19.77;29.20
76827;BME280;65788;52.284;20.890;2023-01-29T12:27:18;100775.08;;;19.73;29.28
76827;BME280;65788;52.284;20.890;2023-01-29T12:29:44;100771.17;;;19.73;29.30
76827;BME280;65788;52.284;20.890;2023-01-29T12:34:58;100771.55;;;19.76;29.25
76827;BME280;65788;52.284;20.890;2023-01-29T12:37:47;100765.84;;;19.76;29.24
76827;BME280;65788;52.284;20.890;2023-01-29T12:40:17;100760.59;;;19.75;29.19
76827;BME280;65788;52.284;20.890;2023-01-29T12:42:48;100757.41;;;19.91;31.09
76827;BME280;65788;52.284;20.890;2023-01-29T12:45:18;100754.02;;;20.01;31.97
76827;BME280;65788;52.284;20.890;2023-01-29T12:47:51;100751.39;;;20.07;32.51
76827;BME280;65788;52.284;20.890;2023-01-29T12:50:29;100748.73;;;20.12;32.34
76827;BME280;65788;52.284;20.890;2023-01-29T12:53:06;100745.73;;;20.12;31.65
76827;BME280;65788;52.284;20.890;2023-01-29T12:55:42;100745.89;;;20.01;29.47
76827;BME280;65788;52.284;20.890;2023-01-29T12:58:20;100745.95;;;19.95;29.21
76827;BME280;65788;52.284;20.890;2023-01-29T13:00:50;100743.80;;;19.90;29.15
76827;BME280;65788;52.284;20.890;2023-01-29T13:03:24;100738.90;;;19.86;29.04
76827;BME280;65788;52.284;20.890;2023-01-29T13:05:56;100743.04;;;19.87;29.00
76827;BME280;65788;52.284;20.890;2023-01-29T13:08:25;100753.38;;;19.84;29.08
76827;BME280;65788;52.284;20.890;2023-01-29T13:10:55;100756.02;;;19.81;29.25
76827;BME280;65788;52.284;20.890;2023-01-29T13:13:27;100758.03;;;19.80;29.38
76827;BME280;65788;52.284;20.890;2023-01-29T13:15:56;100763.54;;;19.81;29.45
76827;BME280;65788;52.284;20.890;2023-01-29T13:21:30;100762.70;;;19.81;29.38
76827;BME280;65788;52.284;20.890;2023-01-29T13:24:03;100753.58;;;19.80;29.42
76827;BME280;65788;52.284;20.890;2023-01-29T13:26:33;100754.94;;;19.80;29.47
76827;BME280;65788;52.284;20.890;2023-01-29T13:29:00;100755.11;;;19.78;29.54
76827;BME280;65788;52.284;20.890;2023-01-29T13:31:30;100754.85;;;19.78;29.55
76827;BME280;65788;52.284;20.890;2023-01-29T13:36:28;100742.52;;;19.77;29.61
76827;BME280;65788;52.284;20.890;2023-01-29T13:39:03;100738.36;;;19.76;29.57
76827;BME280;65788;52.284;20.890;2023-01-29T13:41:32;100727.95;;;19.74;29.61
76827;BME280;65788;52.284;20.890;2023-01-29T13:44:00;100725.65;;;19.71;29.59
76827;BME280;65788;52.284;20.890;2023-01-29T13:46:28;100722.98;;;19.72;29.58
76827;BME280;65788;52.284;20.890;2023-01-29T13:48:57;100715.73;;;19.70;29.58
76827;BME280;65788;52.284;20.890;2023-01-29T13:51:29;100718.55;;;19.71;29.68
76827;BME280;65788;52.284;20.890;2023-01-29T13:53:59;100720.52;;;19.70;29.72
76827;BME280;65788;52.284;20.890;2023-01-29T13:58:55;100719.23;;;19.67;29.64
76827;BME280;65788;52.284;20.890;2023-01-29T14:06:48;100725.06;;;19.65;29.60
76827;BME280;65788;52.284;20.890;2023-01-29T14:11:55;100737.31;;;19.67;29.51
76827;BME280;65788;52.284;20.890;2023-01-29T14:17:10;100747.19;;;19.65;29.44
76827;BME280;65788;52.284;20.890;2023-01-29T14:19:37;100752.02;;;19.64;29.34
76827;BME280;65788;52.284;20.890;2023-01-29T14:22:19;100756.27;;;19.65;29.30
76827;BME280;65788;52.284;20.890;2023-01-29T14:24:48;100752.91;;;19.64;29.27
76827;BME280;65788;52.284;20.890;2023-01-29T14:27:18;100740.52;;;19.61;29.27
76827;BME280;65788;52.284;20.890;2023-01-29T14:29:47;100728.21;;;19.63;29.24
76827;BME280;65788;52.284;20.890;2023-01-29T14:32:17;100727.95;;;19.60;29.23
76827;BME280;65788;52.284;20.890;2023-01-29T14:34:50;100734.80;;;19.61;29.23
76827;BME280;65788;52.284;20.890;2023-01-29T14:37:20;100735.65;;;19.61;29.26
76827;BME280;65788;52.284;20.890;2023-01-29T14:39:49;100728.91;;;19.63;29.23